Time;durP1;ratioP1;P1;durP2;ratioP2;P2;SDS_P1;SDS_P2;PMS_P1;PMS_P2;Temp;Humidity;BMP_temperature;BMP_pressure;BME280_temperature;BME280_humidity;BME280_pressure;Samples;Min_cycle;Max_cycle;Signal;HPM_P1;HPM_P2
2022/04/06 00:01:12;;;;;;;19.27;12.10;;;;;;;;;;5031196;28;20402;-49
2022/04/06 00:03:38;;;;;;;25.07;12.60;;;;;;;;;;5031160;28;20422;-49
2022/04/06 00:06:04;;;;;;;24.80;12.47;;;;;;;;;;5033174;28;20410;-48
2022/04/06 00:08:30;;;;;;;14.37;9.13;;;;;;;;;;5034358;28;20456;-48
2022/04/06 00:10:56;;;;;;;23.63;11.00;;;;;;;;;;5033631;28;20412;-49
2022/04/06 00:13:22;;;;;;;21.83;11.93;;;;;;;;;;5034705;28;20962;-48
2022/04/06 00:15:48;;;;;;;27.63;12.30;;;;;;;;;;5035303;28;20398;-48
2022/04/06 00:18:15;;;;;;;27.20;11.80;;;;;;;;;;5035097;28;20406;-49
2022/04/06 00:20:41;;;;;;;18.63;11.20;;;;;;;;;;5034829;28;20414;-47
2022/04/06 00:23:07;;;;;;;27.47;11.43;;;;;;;;;;5034967;28;20456;-49
2022/04/06 00:25:33;;;;;;;23.63;11.80;;;;;;;;;;5035080;28;20414;-47
2022/04/06 00:27:59;;;;;;;21.80;11.30;;;;;;;;;;5035015;28;20453;-47
2022/04/06 00:30:25;;;;;;;27.03;12.13;;;;;;;;;;5034843;28;20412;-48
2022/04/06 00:32:51;;;;;;;19.43;10.93;;;;;;;;;;5034689;28;20418;-48
2022/04/06 00:35:29;;;;;;;23.30;9.83;;;;;;;;;;5034839;28;20402;-48
2022/04/06 00:37:56;;;;;;;28.03;10.50;;;;;;;;;;5034857;28;20483;-48
2022/04/06 00:40:23;;;;;;;23.40;12.00;;;;;;;;;;5034539;28;20402;-49
2022/04/06 00:42:49;;;;;;;22.47;10.67;;;;;;;;;;5034653;28;20409;-47
2022/04/06 00:45:15;;;;;;;27.97;11.40;;;;;;;;;;5034598;28;20402;-48
2022/04/06 00:47:42;;;;;;;24.40;11.23;;;;;;;;;;5034595;28;20497;-48
2022/04/06 00:50:08;;;;;;;26.80;10.93;;;;;;;;;;5034293;28;20456;-47
2022/04/06 00:52:35;;;;;;;19.27;10.53;;;;;;;;;;5034579;28;20751;-48
2022/04/06 00:55:01;;;;;;;18.97;10.33;;;;;;;;;;5034571;28;20778;-47
2022/04/06 00:57:27;;;;;;;15.57;10.07;;;;;;;;;;5034603;28;20427;-48
2022/04/06 00:59:53;;;;;;;16.77;10.67;;;;;;;;;;5034119;28;20886;-48
2022/04/06 01:02:19;;;;;;;18.47;10.33;;;;;;;;;;5033663;28;20478;-48
2022/04/06 01:04:45;;;;;;;17.10;9.67;;;;;;;;;;5033793;28;20415;-49
2022/04/06 01:07:12;;;;;;;18.60;9.00;;;;;;;;;;5034041;28;20413;-48
2022/04/06 01:09:38;;;;;;;17.37;10.30;;;;;;;;;;5033935;28;20904;-48
2022/04/06 01:12:04;;;;;;;14.30;10.10;;;;;;;;;;5034141;28;20481;-49
2022/04/06 01:14:30;;;;;;;17.03;9.80;;;;;;;;;;5034006;28;20983;-49
2022/04/06 01:16:57;;;;;;;13.43;8.63;;;;;;;;;;5032827;28;20395;-48
2022/04/06 01:19:23;;;;;;;18.87;9.40;;;;;;;;;;5033751;28;20847;-49
2022/04/06 01:21:49;;;;;;;19.67;10.27;;;;;;;;;;5033996;28;20438;-48
2022/04/06 01:24:15;;;;;;;22.40;10.00;;;;;;;;;;5033936;28;20839;-50
2022/04/06 01:26:41;;;;;;;18.23;9.50;;;;;;;;;;5033958;28;20495;-49
2022/04/06 01:29:07;;;;;;;17.10;8.43;;;;;;;;;;5033673;28;20463;-50
2022/04/06 01:31:33;;;;;;;17.80;9.27;;;;;;;;;;5033634;28;20405;-48
2022/04/06 01:33:59;;;;;;;18.00;8.63;;;;;;;;;;5033796;28;20460;-48
2022/04/06 01:36:25;;;;;;;26.27;9.80;;;;;;;;;;5033736;28;20405;-48
2022/04/06 01:38:51;;;;;;;17.47;9.87;;;;;;;;;;5033620;28;20460;-48
2022/04/06 01:41:20;;;;;;;17.80;8.63;;;;;;;;;;5033551;28;20917;-53
2022/04/06 01:43:46;;;;;;;19.90;9.33;;;;;;;;;;5033451;28;20426;-49
2022/04/06 01:46:12;;;;;;;14.50;8.73;;;;;;;;;;5033724;28;20465;-51
2022/04/06 01:52:12;;;;;;;18.20;8.97;;;;;;;;;;5033393;28;20454;-50
2022/04/06 01:54:08;;;;;;;16.40;8.30;;;;;;;;;;5033148;28;20459;-50
2022/04/06 01:56:34;;;;;;;12.53;8.63;;;;;;;;;;5033382;28;20832;-50
2022/04/06 01:59:00;;;;;;;22.30;9.83;;;;;;;;;;5033401;28;20797;-48
2022/04/06 02:01:27;;;;;;;20.10;8.87;;;;;;;;;;5033051;28;20806;-49
2022/04/06 02:03:53;;;;;;;12.20;8.50;;;;;;;;;;5033495;28;20426;-50
2022/04/06 02:06:21;;;;;;;17.83;9.00;;;;;;;;;;5033133;28;20471;-50
2022/04/06 02:08:47;;;;;;;14.10;8.40;;;;;;;;;;5032929;28;20453;-50
2022/04/06 02:11:12;;;;;;;21.90;9.00;;;;;;;;;;5032943;28;20773;-50
2022/04/06 02:13:39;;;;;;;16.60;9.87;;;;;;;;;;5032898;28;20807;-49
2022/04/06 02:16:05;;;;;;;21.03;9.60;;;;;;;;;;5032933;28;20486;-50
2022/04/06 02:18:31;;;;;;;26.03;7.97;;;;;;;;;;5032931;28;20892;-49
2022/04/06 02:20:57;;;;;;;21.10;9.77;;;;;;;;;;5033184;28;20918;-49
2022/04/06 02:23:23;;;;;;;14.63;8.03;;;;;;;;;;5032537;28;20509;-50
2022/04/06 02:25:50;;;;;;;14.43;7.97;;;;;;;;;;5032804;28;20496;-50
2022/04/06 02:28:16;;;;;;;17.90;8.77;;;;;;;;;;5032325;28;21047;-48
2022/04/06 02:30:42;;;;;;;13.53;9.17;;;;;;;;;;5032536;28;20484;-50
2022/04/06 02:33:08;;;;;;;20.40;9.37;;;;;;;;;;5032628;28;20415;-50
2022/04/06 02:35:34;;;;;;;16.03;8.30;;;;;;;;;;5032665;28;20904;-49
2022/04/06 02:38:00;;;;;;;12.90;8.20;;;;;;;;;;5032552;28;20875;-48
2022/04/06 02:40:26;;;;;;;16.10;8.77;;;;;;;;;;5032319;28;20493;-49
2022/04/06 02:42:52;;;;;;;12.60;7.57;;;;;;;;;;5032411;28;20421;-48
2022/04/06 02:45:17;;;;;;;16.70;9.13;;;;;;;;;;5032465;28;20460;-49
2022/04/06 02:47:43;;;;;;;12.93;8.60;;;;;;;;;;5032458;28;20407;-48
2022/04/06 02:50:09;;;;;;;11.03;6.77;;;;;;;;;;5032046;28;20422;-49
2022/04/06 02:52:35;;;;;;;12.93;6.97;;;;;;;;;;5032164;28;20838;-49
2022/04/06 02:55:02;;;;;;;16.20;7.30;;;;;;;;;;5032300;28;20401;-49
2022/04/06 02:57:28;;;;;;;22.10;7.30;;;;;;;;;;5032227;28;20769;-50
2022/04/06 02:59:54;;;;;;;15.00;7.07;;;;;;;;;;5031942;28;20489;-50
2022/04/06 03:02:21;;;;;;;14.03;6.33;;;;;;;;;;5032022;28;20409;-48
2022/04/06 03:04:47;;;;;;;19.03;6.70;;;;;;;;;;5032104;28;20396;-49
2022/04/06 03:07:17;;;;;;;16.33;6.67;;;;;;;;;;5032037;28;20402;-50
2022/04/06 03:09:43;;;;;;;22.13;5.97;;;;;;;;;;5031962;28;20457;-48
2022/04/06 03:12:09;;;;;;;12.80;6.37;;;;;;;;;;5031962;28;20459;-50
2022/04/06 03:14:37;;;;;;;19.17;7.23;;;;;;;;;;5031891;28;20427;-48
2022/04/06 03:17:03;;;;;;;11.27;6.13;;;;;;;;;;5031995;28;20455;-49
2022/04/06 03:19:29;;;;;;;13.37;6.53;;;;;;;;;;5031608;28;20420;-49
2022/04/06 03:21:55;;;;;;;12.40;6.47;;;;;;;;;;5031869;28;20402;-50
2022/04/06 03:24:21;;;;;;;19.20;8.23;;;;;;;;;;5031809;28;20800;-51
2022/04/06 03:26:47;;;;;;;11.03;5.87;;;;;;;;;;5031828;28;20405;-50
2022/04/06 03:29:14;;;;;;;13.70;6.10;;;;;;;;;;5031630;28;20511;-48
2022/04/06 03:31:42;;;;;;;13.70;6.20;;;;;;;;;;5031682;28;20411;-49
2022/04/06 03:34:08;;;;;;;11.13;6.10;;;;;;;;;;5031631;28;20422;-51
2022/04/06 03:36:34;;;;;;;12.40;6.83;;;;;;;;;;5031728;28;20824;-50
2022/04/06 03:38:59;;;;;;;13.87;5.87;;;;;;;;;;5031815;28;20792;-50
2022/04/06 03:41:25;;;;;;;11.43;5.97;;;;;;;;;;5034843;28;20507;-50
2022/04/06 03:43:52;;;;;;;10.93;6.10;;;;;;;;;;5035658;28;20463;-49
2022/04/06 03:46:18;;;;;;;15.20;6.50;;;;;;;;;;5035826;28;20971;-50
2022/04/06 03:48:44;;;;;;;11.03;6.17;;;;;;;;;;5035516;28;20667;-50
2022/04/06 03:51:10;;;;;;;14.10;6.80;;;;;;;;;;5035462;28;20405;-50
2022/04/06 03:53:36;;;;;;;12.37;6.17;;;;;;;;;;5035554;28;20424;-48
2022/04/06 03:56:02;;;;;;;14.97;7.03;;;;;;;;;;5035841;28;20407;-48
2022/04/06 03:58:30;;;;;;;14.20;6.97;;;;;;;;;;5035475;28;20413;-48
2022/04/06 04:00:56;;;;;;;10.87;6.30;;;;;;;;;;5035257;28;20402;-49
2022/04/06 04:03:23;;;;;;;11.10;6.60;;;;;;;;;;5035326;28;20845;-50
2022/04/06 04:05:49;;;;;;;10.43;6.30;;;;;;;;;;5035402;28;20417;-51
2022/04/06 04:08:17;;;;;;;10.80;7.17;;;;;;;;;;5035470;28;20462;-50
2022/04/06 04:10:43;;;;;;;14.83;6.37;;;;;;;;;;5035158;28;20409;-49
2022/04/06 04:13:11;;;;;;;11.30;6.60;;;;;;;;;;5035190;28;20930;-50
2022/04/06 04:15:37;;;;;;;10.87;8.07;;;;;;;;;;5035182;28;20795;-49
2022/04/06 04:18:03;;;;;;;14.20;6.87;;;;;;;;;;5035243;28;20397;-51
2022/04/06 04:20:28;;;;;;;18.00;8.00;;;;;;;;;;5034936;28;20411;-51
2022/04/06 04:22:54;;;;;;;12.87;7.63;;;;;;;;;;5035175;28;20463;-50
2022/04/06 04:25:20;;;;;;;13.87;6.90;;;;;;;;;;5035080;28;20398;-50
2022/04/06 04:27:46;;;;;;;12.57;7.63;;;;;;;;;;5035148;28;20406;-50
2022/04/06 04:30:14;;;;;;;10.43;6.80;;;;;;;;;;5034633;28;20854;-50
2022/04/06 04:32:40;;;;;;;11.77;6.50;;;;;;;;;;5034981;28;20433;-48
2022/04/06 04:35:08;;;;;;;10.40;6.27;;;;;;;;;;5034910;28;20405;-50
2022/04/06 04:37:34;;;;;;;13.73;7.10;;;;;;;;;;5034884;28;20404;-50
2022/04/06 04:40:00;;;;;;;14.87;6.90;;;;;;;;;;5034583;28;20404;-50
2022/04/06 04:42:26;;;;;;;14.70;6.87;;;;;;;;;;5034605;28;20409;-50
2022/04/06 04:44:52;;;;;;;12.80;6.80;;;;;;;;;;5034642;28;20771;-49
2022/04/06 04:47:18;;;;;;;11.73;6.83;;;;;;;;;;5034712;28;20406;-48
2022/04/06 04:49:44;;;;;;;6.37;5.77;;;;;;;;;;5034250;28;20468;-49
2022/04/06 04:52:10;;;;;;;9.43;6.20;;;;;;;;;;5034296;28;20433;-50
2022/04/06 04:54:36;;;;;;;12.93;6.60;;;;;;;;;;5034453;28;20783;-48
2022/04/06 04:57:02;;;;;;;14.27;5.67;;;;;;;;;;5034475;28;20407;-48
2022/04/06 04:59:28;;;;;;;13.97;6.10;;;;;;;;;;5034152;28;20434;-49
2022/04/06 05:01:54;;;;;;;14.03;6.13;;;;;;;;;;5034270;28;20485;-48
2022/04/06 05:04:22;;;;;;;11.73;5.57;;;;;;;;;;5034294;28;20422;-47
2022/04/06 05:06:48;;;;;;;6.23;5.63;;;;;;;;;;5034364;28;20408;-47
2022/04/06 05:09:14;;;;;;;12.07;5.63;;;;;;;;;;5034129;28;20448;-47
2022/04/06 05:11:40;;;;;;;9.53;5.20;;;;;;;;;;5034088;28;20418;-51
2022/04/06 05:14:06;;;;;;;12.70;5.03;;;;;;;;;;5034044;28;20424;-47
2022/04/06 05:16:32;;;;;;;9.10;5.03;;;;;;;;;;5037614;28;20446;-47
2022/04/06 05:18:58;;;;;;;8.20;4.57;;;;;;;;;;5038601;28;20416;-47
2022/04/06 05:21:24;;;;;;;9.23;4.97;;;;;;;;;;5053945;28;20404;-47
2022/04/06 05:23:50;;;;;;;8.30;4.30;;;;;;;;;;5044122;28;20430;-47
2022/04/06 05:26:16;;;;;;;6.13;5.00;;;;;;;;;;5033411;28;20941;-47
2022/04/06 05:28:42;;;;;;;10.00;4.73;;;;;;;;;;5033694;28;20462;-47
2022/04/06 05:31:08;;;;;;;11.00;5.33;;;;;;;;;;5033606;28;20484;-48
2022/04/06 05:33:34;;;;;;;6.63;5.40;;;;;;;;;;5033532;28;20490;-48
2022/04/06 05:36:00;;;;;;;7.27;4.93;;;;;;;;;;5033849;28;20448;-48
2022/04/06 05:38:26;;;;;;;10.97;4.43;;;;;;;;;;5033768;28;20408;-48
2022/04/06 05:40:52;;;;;;;4.13;3.77;;;;;;;;;;5033569;28;20459;-46
2022/04/06 05:43:18;;;;;;;5.50;4.43;;;;;;;;;;5033440;28;20459;-48
2022/04/06 05:45:44;;;;;;;9.67;4.10;;;;;;;;;;5032430;28;20459;-46
2022/04/06 05:48:11;;;;;;;7.13;3.83;;;;;;;;;;5016033;28;20857;-47
2022/04/06 05:50:38;;;;;;;12.87;4.70;;;;;;;;;;5016320;28;20428;-46
2022/04/06 05:53:04;;;;;;;5.63;4.30;;;;;;;;;;5034534;28;21009;-46
2022/04/06 05:55:30;;;;;;;11.37;5.20;;;;;;;;;;5033825;28;20766;-46
2022/04/06 05:57:57;;;;;;;9.47;4.43;;;;;;;;;;5034273;28;20396;-45
2022/04/06 06:00:23;;;;;;;8.03;4.33;;;;;;;;;;5034437;28;20538;-45
2022/04/06 06:02:51;;;;;;;12.43;5.00;;;;;;;;;;5032917;28;20516;-46
2022/04/06 06:05:17;;;;;;;10.00;4.47;;;;;;;;;;5032690;28;20415;-45
2022/04/06 06:07:43;;;;;;;7.90;4.13;;;;;;;;;;5032135;28;20410;-49
2022/04/06 06:10:09;;;;;;;6.07;4.20;;;;;;;;;;5031796;28;20472;-50
2022/04/06 06:12:36;;;;;;;9.80;4.70;;;;;;;;;;5031225;28;20438;-48
2022/04/06 06:15:06;;;;;;;6.80;4.60;;;;;;;;;;5032600;28;20398;-49
2022/04/06 06:17:32;;;;;;;8.00;4.70;;;;;;;;;;5032294;28;20411;-50
2022/04/06 06:19:58;;;;;;;10.83;5.37;;;;;;;;;;5032255;28;20809;-50
2022/04/06 06:22:24;;;;;;;6.67;4.60;;;;;;;;;;5032678;28;20449;-49
2022/04/06 06:24:50;;;;;;;6.70;4.47;;;;;;;;;;5052706;28;20822;-47
2022/04/06 06:27:19;;;;;;;7.50;4.27;;;;;;;;;;5052698;28;20409;-49
2022/04/06 06:29:50;;;;;;;7.77;5.10;;;;;;;;;;5052327;28;21023;-48
2022/04/06 06:32:17;;;;;;;10.03;4.83;;;;;;;;;;5026414;28;20912;-51
2022/04/06 06:34:43;;;;;;;8.93;5.00;;;;;;;;;;5032500;28;20836;-50
2022/04/06 06:37:15;;;;;;;10.40;5.43;;;;;;;;;;5031867;28;20439;-52
2022/04/06 06:39:41;;;;;;;10.60;5.13;;;;;;;;;;5032332;28;20404;-50
2022/04/06 06:42:07;;;;;;;5.97;4.60;;;;;;;;;;5032549;28;20973;-50
2022/04/06 06:44:33;;;;;;;7.47;4.70;;;;;;;;;;5032375;28;20925;-51
2022/04/06 06:46:59;;;;;;;12.47;5.10;;;;;;;;;;5032427;28;20956;-50
2022/04/06 06:49:26;;;;;;;9.53;4.63;;;;;;;;;;5031398;28;20884;-49
2022/04/06 06:51:52;;;;;;;10.10;4.63;;;;;;;;;;5033714;28;20410;-46
2022/04/06 06:54:19;;;;;;;5.80;4.33;;;;;;;;;;5032176;28;20456;-46
2022/04/06 06:56:45;;;;;;;7.10;5.40;;;;;;;;;;5031071;28;20418;-46
2022/04/06 06:59:11;;;;;;;8.87;4.60;;;;;;;;;;5031510;28;20443;-47
2022/04/06 07:01:37;;;;;;;8.83;4.30;;;;;;;;;;5031990;28;20500;-47
2022/04/06 07:04:03;;;;;;;9.53;4.27;;;;;;;;;;5032316;28;20501;-46
2022/04/06 07:06:29;;;;;;;6.10;4.00;;;;;;;;;;5031887;28;20414;-47
2022/04/06 07:08:54;;;;;;;7.43;3.53;;;;;;;;;;5032589;28;20470;-46
2022/04/06 07:11:20;;;;;;;6.27;3.83;;;;;;;;;;5031936;28;20766;-47
2022/04/06 07:13:46;;;;;;;10.33;4.00;;;;;;;;;;5030984;28;20941;-48
2022/04/06 07:16:15;;;;;;;7.70;4.00;;;;;;;;;;5031937;28;20414;-46
2022/04/06 07:18:40;;;;;;;12.37;4.83;;;;;;;;;;5030978;28;20415;-46
2022/04/06 07:21:06;;;;;;;6.70;3.23;;;;;;;;;;5031824;28;20414;-47
2022/04/06 07:23:33;;;;;;;5.37;4.40;;;;;;;;;;5032354;28;20453;-46
2022/04/06 07:25:59;;;;;;;12.00;3.80;;;;;;;;;;5032299;28;20402;-47
2022/04/06 07:28:25;;;;;;;11.43;4.60;;;;;;;;;;5031851;28;20448;-46
2022/04/06 07:30:51;;;;;;;9.37;3.60;;;;;;;;;;5031396;28;20418;-47
2022/04/06 07:33:17;;;;;;;7.87;3.53;;;;;;;;;;5031548;28;20447;-47
2022/04/06 07:35:44;;;;;;;11.23;4.67;;;;;;;;;;5031775;28;20410;-47
2022/04/06 07:38:12;;;;;;;11.13;4.80;;;;;;;;;;5032129;28;20882;-47
2022/04/06 07:40:38;;;;;;;7.03;4.17;;;;;;;;;;5030185;28;20551;-47
2022/04/06 07:43:04;;;;;;;7.77;4.50;;;;;;;;;;5031625;28;20430;-46
2022/04/06 07:45:30;;;;;;;9.63;4.03;;;;;;;;;;5032166;28;20406;-46
2022/04/06 07:47:56;;;;;;;12.23;4.63;;;;;;;;;;5025980;28;20492;-46
2022/04/06 07:50:22;;;;;;;5.70;4.03;;;;;;;;;;5011922;28;20429;-46
2022/04/06 07:52:49;;;;;;;5.43;4.37;;;;;;;;;;5012157;28;20487;-49
2022/04/06 07:55:15;;;;;;;12.20;4.53;;;;;;;;;;5020807;28;20890;-50
2022/04/06 07:57:41;;;;;;;11.27;4.37;;;;;;;;;;5025289;28;20411;-46
2022/04/06 08:00:09;;;;;;;7.23;4.50;;;;;;;;;;5031007;28;20418;-46
2022/04/06 08:02:35;;;;;;;9.53;4.80;;;;;;;;;;5030495;28;20409;-46
2022/04/06 08:05:01;;;;;;;8.70;4.57;;;;;;;;;;5031414;28;20415;-47
2022/04/06 08:07:27;;;;;;;7.47;5.10;;;;;;;;;;5031535;28;20414;-47
2022/04/06 08:09:53;;;;;;;8.03;4.80;;;;;;;;;;5030802;28;20504;-47
2022/04/06 08:12:19;;;;;;;6.70;3.90;;;;;;;;;;5031379;28;20949;-47
2022/04/06 08:14:47;;;;;;;11.20;4.63;;;;;;;;;;5031125;28;20418;-47
2022/04/06 08:17:12;;;;;;;5.93;3.93;;;;;;;;;;5034346;28;20438;-47
2022/04/06 08:19:38;;;;;;;6.60;4.67;;;;;;;;;;5033343;28;20472;-47
2022/04/06 08:22:04;;;;;;;7.50;3.90;;;;;;;;;;5036285;28;20410;-47
2022/04/06 08:24:30;;;;;;;5.33;3.87;;;;;;;;;;5030415;28;20491;-47
2022/04/06 08:26:56;;;;;;;6.13;4.23;;;;;;;;;;5033523;28;20843;-47
2022/04/06 08:29:22;;;;;;;5.33;4.70;;;;;;;;;;5033066;28;20797;-46
2022/04/06 08:31:49;;;;;;;6.93;4.63;;;;;;;;;;5034978;28;20928;-47
2022/04/06 08:34:15;;;;;;;6.43;4.00;;;;;;;;;;5040288;28;20898;-47
2022/04/06 08:36:43;;;;;;;15.77;7.63;;;;;;;;;;5035183;28;20504;-47
2022/04/06 08:39:09;;;;;;;9.73;5.03;;;;;;;;;;5034696;28;20421;-47
2022/04/06 08:41:35;;;;;;;5.40;4.03;;;;;;;;;;5034801;28;20778;-47
2022/04/06 08:44:04;;;;;;;9.50;4.23;;;;;;;;;;5034551;28;20444;-46
2022/04/06 08:46:34;;;;;;;7.73;4.00;;;;;;;;;;5034716;28;20430;-47
2022/04/06 08:49:00;;;;;;;4.27;3.87;;;;;;;;;;5034306;28;20457;-47
2022/04/06 08:51:28;;;;;;;7.93;3.57;;;;;;;;;;5039160;28;20414;-47
2022/04/06 08:53:54;;;;;;;5.03;3.63;;;;;;;;;;5033968;28;20529;-48
2022/04/06 08:56:21;;;;;;;5.83;3.53;;;;;;;;;;5033277;28;20403;-47
2022/04/06 08:58:48;;;;;;;7.60;3.10;;;;;;;;;;5034139;28;20422;-49
2022/04/06 09:01:14;;;;;;;5.37;3.10;;;;;;;;;;5034267;28;20413;-47
2022/04/06 09:03:40;;;;;;;4.63;4.03;;;;;;;;;;5034054;28;20438;-46
2022/04/06 09:06:12;;;;;;;6.80;3.27;;;;;;;;;;5034345;28;20794;-47
2022/04/06 09:08:39;;;;;;;4.63;3.80;;;;;;;;;;5034121;28;20504;-47
2022/04/06 09:11:11;;;;;;;5.50;3.57;;;;;;;;;;5034198;28;20406;-47
2022/04/06 09:13:38;;;;;;;4.60;3.60;;;;;;;;;;5033888;28;20438;-47
2022/04/06 09:16:04;;;;;;;6.17;3.00;;;;;;;;;;5034151;28;20480;-48
2022/04/06 09:18:42;;;;;;;6.23;3.03;;;;;;;;;;5033994;28;20846;-47
2022/04/06 09:21:09;;;;;;;6.20;3.13;;;;;;;;;;5031001;28;20848;-47
2022/04/06 09:23:36;;;;;;;4.63;2.97;;;;;;;;;;5033734;28;20441;-48
2022/04/06 09:26:03;;;;;;;6.20;2.93;;;;;;;;;;5035053;28;20497;-48
2022/04/06 09:28:30;;;;;;;6.50;3.20;;;;;;;;;;5030929;28;20466;-49
2022/04/06 09:30:56;;;;;;;7.63;3.10;;;;;;;;;;5033072;28;20414;-49
2022/04/06 09:33:22;;;;;;;4.93;2.70;;;;;;;;;;5033355;28;20442;-47
2022/04/06 09:35:49;;;;;;;4.17;2.70;;;;;;;;;;5033773;28;20513;-47
2022/04/06 09:38:16;;;;;;;6.97;2.80;;;;;;;;;;5032171;28;20406;-48
2022/04/06 09:40:43;;;;;;;8.27;2.90;;;;;;;;;;5033377;28;20786;-47
2022/04/06 09:43:10;;;;;;;6.70;2.40;;;;;;;;;;5033309;28;20433;-48
2022/04/06 09:48:21;;;;;;;4.63;2.60;;;;;;;;;;5033163;28;20459;-48
2022/04/06 09:50:55;;;;;;;4.37;2.40;;;;;;;;;;5033138;28;20426;-47
2022/04/06 09:53:25;;;;;;;3.57;2.40;;;;;;;;;;5031909;28;20447;-48
2022/04/06 09:55:53;;;;;;;5.60;2.60;;;;;;;;;;5033064;28;20826;-47
2022/04/06 09:58:21;;;;;;;3.20;2.57;;;;;;;;;;5032715;28;20418;-49
2022/04/06 10:00:47;;;;;;;6.93;2.43;;;;;;;;;;5033002;28;20776;-47
2022/04/06 10:03:18;;;;;;;4.83;2.23;;;;;;;;;;5032956;28;20566;-49
2022/04/06 10:05:44;;;;;;;5.87;2.10;;;;;;;;;;5032865;28;20395;-48
2022/04/06 10:08:11;;;;;;;5.40;2.90;;;;;;;;;;5032624;28;20417;-48
2022/04/06 10:10:38;;;;;;;6.60;2.27;;;;;;;;;;5032685;28;20394;-48
2022/04/06 10:13:05;;;;;;;4.07;2.60;;;;;;;;;;5032656;28;20438;-47
2022/04/06 10:15:31;;;;;;;5.23;2.87;;;;;;;;;;5032906;28;20956;-48
2022/04/06 10:17:57;;;;;;;6.53;2.27;;;;;;;;;;5031465;28;20857;-47
2022/04/06 10:20:26;;;;;;;8.77;2.73;;;;;;;;;;5032187;28;20692;-48
2022/04/06 10:22:55;;;;;;;4.83;2.70;;;;;;;;;;5031276;28;20872;-47
2022/04/06 10:25:31;;;;;;;4.07;2.30;;;;;;;;;;5046984;28;20851;-47
2022/04/06 10:27:58;;;;;;;4.50;2.97;;;;;;;;;;5048022;28;20413;-47
2022/04/06 10:30:27;;;;;;;14.23;2.30;;;;;;;;;;5032408;28;20504;-47
2022/04/06 10:32:57;;;;;;;4.17;2.37;;;;;;;;;;5031975;28;20438;-47
2022/04/06 10:35:24;;;;;;;4.70;2.87;;;;;;;;;;5032593;28;20397;-48
2022/04/06 10:37:51;;;;;;;7.47;2.67;;;;;;;;;;5032243;28;20410;-47
2022/04/06 10:40:17;;;;;;;6.17;3.10;;;;;;;;;;5032319;28;20402;-47
2022/04/06 10:42:45;;;;;;;4.70;2.00;;;;;;;;;;5030893;28;20437;-47
2022/04/06 10:45:29;;;;;;;4.30;2.03;;;;;;;;;;5032098;28;20413;-48
2022/04/06 10:48:14;;;;;;;4.00;2.20;;;;;;;;;;5032242;28;20422;-48
2022/04/06 10:50:40;;;;;;;4.10;2.27;;;;;;;;;;5031721;28;20512;-48
2022/04/06 10:53:21;;;;;;;7.73;2.30;;;;;;;;;;5031933;28;20441;-47
2022/04/06 10:56:11;;;;;;;12.17;2.70;;;;;;;;;;5032003;28;20977;-47
2022/04/06 10:58:55;;;;;;;5.53;2.80;;;;;;;;;;5012443;28;20442;-47
2022/04/06 11:01:29;;;;;;;4.03;2.70;;;;;;;;;;5015691;28;20410;-46
2022/04/06 11:03:57;;;;;;;8.57;2.43;;;;;;;;;;5031470;28;20426;-47
2022/04/06 11:06:41;;;;;;;7.83;2.40;;;;;;;;;;5031866;28;20436;-49
2022/04/06 11:12:27;;;;;;;3.60;2.53;;;;;;;;;;5031735;28;20449;-47
2022/04/06 11:14:53;;;;;;;6.50;2.23;;;;;;;;;;5031835;28;20478;-47
2022/04/06 11:17:44;;;;;;;5.53;2.40;;;;;;;;;;5031903;28;20891;-47
2022/04/06 11:20:29;;;;;;;2.30;2.10;;;;;;;;;;5031614;28;20409;-47
2022/04/06 11:22:57;;;;;;;3.30;2.40;;;;;;;;;;5031450;28;20520;-47
2022/04/06 11:25:25;;;;;;;8.40;3.00;;;;;;;;;;5046894;28;20417;-47
2022/04/06 11:27:54;;;;;;;4.00;2.47;;;;;;;;;;5036942;28;21003;-47
2022/04/06 11:30:22;;;;;;;5.10;2.10;;;;;;;;;;5031115;28;20596;-46
2022/04/06 11:32:53;;;;;;;10.43;2.70;;;;;;;;;;5031337;28;20438;-46
2022/04/06 11:35:20;;;;;;;6.73;3.10;;;;;;;;;;5031508;28;20429;-47
2022/04/06 11:37:49;;;;;;;6.23;2.50;;;;;;;;;;5031575;28;20414;-46
2022/04/06 11:40:17;;;;;;;3.07;2.60;;;;;;;;;;5031494;28;20433;-47
2022/04/06 11:42:47;;;;;;;5.53;3.27;;;;;;;;;;5031324;28;20512;-47
2022/04/06 11:45:18;;;;;;;2.63;2.40;;;;;;;;;;5031698;28;20410;-48
2022/04/06 11:47:45;;;;;;;3.00;2.63;;;;;;;;;;5030539;28;20441;-46
2022/04/06 11:50:13;;;;;;;4.73;2.70;;;;;;;;;;5031128;28;20458;-47
2022/04/06 11:52:41;;;;;;;5.20;3.10;;;;;;;;;;5031576;28;20402;-46
2022/04/06 11:55:07;;;;;;;10.60;3.27;;;;;;;;;;5017143;28;20407;-46
2022/04/06 11:57:42;;;;;;;3.20;2.87;;;;;;;;;;5023795;28;20460;-46
2022/04/06 12:00:09;;;;;;;4.37;2.80;;;;;;;;;;5030355;28;20423;-48
2022/04/06 12:03:02;;;;;;;3.40;3.10;;;;;;;;;;5033422;28;20425;-47
2022/04/06 12:05:28;;;;;;;7.60;2.60;;;;;;;;;;5035619;28;20450;-46
2022/04/06 12:08:12;;;;;;;4.80;3.37;;;;;;;;;;5035541;28;20489;-45
2022/04/06 12:10:48;;;;;;;10.17;3.10;;;;;;;;;;5035292;28;20401;-47
2022/04/06 12:13:14;;;;;;;5.60;2.30;;;;;;;;;;5033171;28;20433;-46
2022/04/06 12:15:43;;;;;;;5.37;3.00;;;;;;;;;;5025126;28;20799;-49
2022/04/06 12:18:09;;;;;;;2.90;2.70;;;;;;;;;;5035016;28;21020;-47
2022/04/06 12:20:35;;;;;;;6.00;3.60;;;;;;;;;;5034510;28;20424;-47
2022/04/06 12:23:01;;;;;;;4.47;3.33;;;;;;;;;;5033849;28;21005;-46
2022/04/06 12:25:28;;;;;;;4.63;2.90;;;;;;;;;;5036963;28;20410;-47
2022/04/06 12:28:08;;;;;;;5.90;2.97;;;;;;;;;;5034081;28;20445;-47
2022/04/06 12:30:34;;;;;;;4.60;3.20;;;;;;;;;;5034288;28;20406;-46
2022/04/06 12:33:01;;;;;;;3.53;2.70;;;;;;;;;;5034808;28;20806;-47
2022/04/06 12:35:27;;;;;;;3.90;3.27;;;;;;;;;;5034704;28;20515;-47
2022/04/06 12:37:53;;;;;;;4.13;3.20;;;;;;;;;;5034902;28;20406;-47
2022/04/06 12:40:25;;;;;;;4.30;2.40;;;;;;;;;;5034358;28;20413;-48
2022/04/06 12:42:51;;;;;;;8.53;3.70;;;;;;;;;;5034607;28;20417;-46
2022/04/06 12:45:20;;;;;;;4.83;3.07;;;;;;;;;;5034300;28;20437;-47
2022/04/06 12:47:46;;;;;;;5.17;2.80;;;;;;;;;;5034666;28;20448;-48
2022/04/06 12:50:13;;;;;;;6.00;2.70;;;;;;;;;;5033764;28;20461;-49
2022/04/06 12:52:40;;;;;;;6.70;3.00;;;;;;;;;;5034479;28;20395;-47
2022/04/06 12:55:07;;;;;;;3.67;3.33;;;;;;;;;;5034103;28;20414;-46
2022/04/06 12:57:35;;;;;;;2.57;2.40;;;;;;;;;;5034501;28;20493;-48
2022/04/06 13:00:01;;;;;;;13.43;5.40;;;;;;;;;;5034027;28;20418;-47
2022/04/06 13:02:30;;;;;;;5.67;3.10;;;;;;;;;;5034079;28;20418;-47
2022/04/06 13:04:58;;;;;;;2.63;2.40;;;;;;;;;;5034892;28;20406;-47
2022/04/06 13:07:24;;;;;;;19.23;3.40;;;;;;;;;;5032821;28;20417;-49
2022/04/06 13:09:51;;;;;;;3.27;3.03;;;;;;;;;;5034043;28;20454;-47
2022/04/06 13:12:18;;;;;;;6.13;3.30;;;;;;;;;;5033026;28;20422;-47
2022/04/06 13:14:44;;;;;;;4.77;3.00;;;;;;;;;;5033993;28;20431;-47
2022/04/06 13:17:10;;;;;;;3.30;3.00;;;;;;;;;;5033749;28;20468;-49
2022/04/06 13:19:36;;;;;;;3.53;3.20;;;;;;;;;;5033868;28;20496;-48
2022/04/06 13:22:02;;;;;;;6.23;3.40;;;;;;;;;;5028518;28;20517;-48
2022/04/06 13:24:28;;;;;;;3.30;3.07;;;;;;;;;;5029068;28;20812;-48
2022/04/06 13:26:54;;;;;;;4.87;3.93;;;;;;;;;;5040116;28;20497;-48
2022/04/06 13:29:20;;;;;;;5.50;4.00;;;;;;;;;;5033801;28;20840;-48
2022/04/06 13:31:46;;;;;;;4.63;3.60;;;;;;;;;;5033694;28;20411;-48
2022/04/06 13:34:15;;;;;;;5.47;3.97;;;;;;;;;;5033963;28;20514;-49
2022/04/06 13:36:41;;;;;;;3.80;2.90;;;;;;;;;;5033827;28;20403;-47
2022/04/06 13:39:07;;;;;;;4.13;3.83;;;;;;;;;;5033797;28;20414;-47
2022/04/06 13:41:33;;;;;;;5.33;3.80;;;;;;;;;;5033551;28;20406;-47
2022/04/06 13:43:58;;;;;;;12.83;4.20;;;;;;;;;;5033655;28;20808;-48
2022/04/06 13:46:24;;;;;;;4.83;3.37;;;;;;;;;;5033018;28;20833;-48
2022/04/06 13:48:52;;;;;;;5.07;3.17;;;;;;;;;;5033173;28;20880;-48
2022/04/06 13:51:19;;;;;;;4.77;3.40;;;;;;;;;;5033521;28;20406;-48
2022/04/06 13:53:45;;;;;;;4.77;3.77;;;;;;;;;;5033419;28;20422;-48
2022/04/06 13:56:11;;;;;;;4.57;3.30;;;;;;;;;;5033053;28;20767;-47
2022/04/06 13:58:37;;;;;;;3.90;3.60;;;;;;;;;;5033240;28;20402;-47
2022/04/06 14:01:03;;;;;;;4.50;2.93;;;;;;;;;;5031840;28;20418;-47
2022/04/06 14:03:29;;;;;;;3.33;3.10;;;;;;;;;;5032772;28;20437;-47
2022/04/06 14:05:55;;;;;;;3.90;3.00;;;;;;;;;;5032421;28;20422;-47
2022/04/06 14:08:26;;;;;;;3.73;3.43;;;;;;;;;;5032600;28;20464;-47
2022/04/06 14:10:52;;;;;;;4.60;2.80;;;;;;;;;;5033007;28;20490;-46
2022/04/06 14:13:21;;;;;;;3.33;2.70;;;;;;;;;;5033094;28;20498;-47
2022/04/06 14:15:47;;;;;;;3.43;2.63;;;;;;;;;;5032997;28;20413;-49
2022/04/06 14:18:13;;;;;;;3.33;3.03;;;;;;;;;;5033557;28;20402;-47
2022/04/06 14:20:39;;;;;;;4.63;3.30;;;;;;;;;;5032883;28;20402;-47
2022/04/06 14:23:05;;;;;;;3.67;2.83;;;;;;;;;;5031882;28;20438;-46
2022/04/06 14:25:31;;;;;;;3.00;2.43;;;;;;;;;;5047317;28;20470;-47
2022/04/06 14:27:57;;;;;;;4.30;2.97;;;;;;;;;;5033009;28;20425;-47
2022/04/06 14:30:24;;;;;;;5.23;3.07;;;;;;;;;;5031107;28;20461;-51
2022/04/06 14:32:51;;;;;;;2.50;2.30;;;;;;;;;;5031986;28;20498;-50
2022/04/06 14:35:21;;;;;;;6.93;2.80;;;;;;;;;;5032267;28;20777;-51
2022/04/06 14:37:47;;;;;;;3.27;2.87;;;;;;;;;;5032298;28;20417;-51
2022/04/06 14:40:13;;;;;;;4.73;2.90;;;;;;;;;;5032293;28;20418;-50
2022/04/06 14:42:39;;;;;;;9.50;3.30;;;;;;;;;;5031802;28;20433;-50
2022/04/06 14:45:06;;;;;;;4.50;2.97;;;;;;;;;;5032101;28;21072;-50